sensor_id;sensor_type;location;lat;lon;timestamp;P1;durP1;ratioP1;P2;durP2;ratioP2
69795;SDS011;57073;45.650;9.612;2023-03-03T00:02:39;38.93;;;19.03;;
69795;SDS011;57073;45.650;9.612;2023-03-03T00:07:42;40.45;;;18.25;;
69795;SDS011;57073;45.650;9.612;2023-03-03T00:12:47;47.60;;;20.83;;
69795;SDS011;57073;45.650;9.612;2023-03-03T00:17:48;38.50;;;19.45;;
69795;SDS011;57073;45.650;9.612;2023-03-03T00:22:49;39.00;;;18.67;;
69795;SDS011;57073;45.650;9.612;2023-03-03T00:27:50;39.08;;;19.10;;
69795;SDS011;57073;45.650;9.612;2023-03-03T00:32:50;41.83;;;19.20;;
69795;SDS011;57073;45.650;9.612;2023-03-03T00:37:55;42.07;;;18.77;;
69795;SDS011;57073;45.650;9.612;2023-03-03T00:42:59;40.05;;;18.13;;
69795;SDS011;57073;45.650;9.612;2023-03-03T00:48:02;41.83;;;19.65;;
69795;SDS011;57073;45.650;9.612;2023-03-03T00:53:18;38.47;;;17.90;;
69795;SDS011;57073;45.650;9.612;2023-03-03T00:58:21;38.70;;;19.20;;
69795;SDS011;57073;45.650;9.612;2023-03-03T01:03:23;37.57;;;18.37;;
69795;SDS011;57073;45.650;9.612;2023-03-03T01:08:24;39.00;;;18.60;;
69795;SDS011;57073;45.650;9.612;2023-03-03T01:13:26;42.00;;;18.50;;
69795;SDS011;57073;45.650;9.612;2023-03-03T01:18:29;39.95;;;17.73;;
69795;SDS011;57073;45.650;9.612;2023-03-03T01:23:30;40.40;;;17.83;;
69795;SDS011;57073;45.650;9.612;2023-03-03T01:28:31;41.83;;;18.23;;
69795;SDS011;57073;45.650;9.612;2023-03-03T01:33:32;39.88;;;18.20;;
69795;SDS011;57073;45.650;9.612;2023-03-03T01:38:34;39.77;;;17.40;;
69795;SDS011;57073;45.650;9.612;2023-03-03T01:43:41;39.72;;;17.73;;
69795;SDS011;57073;45.650;9.612;2023-03-03T01:48:43;35.88;;;17.05;;
69795;SDS011;57073;45.650;9.612;2023-03-03T01:53:45;40.27;;;17.47;;
69795;SDS011;57073;45.650;9.612;2023-03-03T01:58:50;36.78;;;17.55;;
69795;SDS011;57073;45.650;9.612;2023-03-03T02:03:57;37.60;;;17.63;;
69795;SDS011;57073;45.650;9.612;2023-03-03T02:09:03;40.65;;;17.73;;
69795;SDS011;57073;45.650;9.612;2023-03-03T02:14:10;37.00;;;17.53;;
69795;SDS011;57073;45.650;9.612;2023-03-03T02:19:15;36.22;;;16.90;;
69795;SDS011;57073;45.650;9.612;2023-03-03T02:24:48;39.75;;;17.50;;
69795;SDS011;57073;45.650;9.612;2023-03-03T02:29:52;40.13;;;18.13;;
69795;SDS011;57073;45.650;9.612;2023-03-03T02:34:52;36.77;;;17.13;;
69795;SDS011;57073;45.650;9.612;2023-03-03T02:39:53;38.47;;;17.23;;
69795;SDS011;57073;45.650;9.612;2023-03-03T02:44:53;39.37;;;18.03;;
69795;SDS011;57073;45.650;9.612;2023-03-03T02:49:53;37.90;;;17.67;;
69795;SDS011;57073;45.650;9.612;2023-03-03T02:54:54;35.47;;;16.90;;
69795;SDS011;57073;45.650;9.612;2023-03-03T02:59:54;40.30;;;16.97;;
69795;SDS011;57073;45.650;9.612;2023-03-03T03:04:54;37.73;;;17.37;;
69795;SDS011;57073;45.650;9.612;2023-03-03T03:09:54;36.13;;;17.27;;
69795;SDS011;57073;45.650;9.612;2023-03-03T03:14:55;35.17;;;16.70;;
69795;SDS011;57073;45.650;9.612;2023-03-03T03:19:55;34.80;;;16.37;;
69795;SDS011;57073;45.650;9.612;2023-03-03T03:24:56;35.00;;;16.23;;
69795;SDS011;57073;45.650;9.612;2023-03-03T03:29:56;37.20;;;16.10;;
69795;SDS011;57073;45.650;9.612;2023-03-03T03:34:56;37.03;;;16.93;;
69795;SDS011;57073;45.650;9.612;2023-03-03T03:39:57;37.57;;;16.57;;
69795;SDS011;57073;45.650;9.612;2023-03-03T03:44:57;35.23;;;16.33;;
69795;SDS011;57073;45.650;9.612;2023-03-03T03:49:57;37.93;;;17.10;;
69795;SDS011;57073;45.650;9.612;2023-03-03T03:54:58;37.73;;;16.93;;
69795;SDS011;57073;45.650;9.612;2023-03-03T03:59:58;32.57;;;14.50;;
69795;SDS011;57073;45.650;9.612;2023-03-03T04:04:59;34.00;;;14.20;;
69795;SDS011;57073;45.650;9.612;2023-03-03T04:09:59;32.20;;;15.10;;
69795;SDS011;57073;45.650;9.612;2023-03-03T04:14:59;30.93;;;13.83;;
69795;SDS011;57073;45.650;9.612;2023-03-03T04:20:00;33.60;;;14.97;;
69795;SDS011;57073;45.650;9.612;2023-03-03T04:25:01;30.00;;;14.38;;
69795;SDS011;57073;45.650;9.612;2023-03-03T04:30:04;33.17;;;13.67;;
69795;SDS011;57073;45.650;9.612;2023-03-03T04:35:05;30.92;;;14.35;;
69795;SDS011;57073;45.650;9.612;2023-03-03T04:40:07;30.37;;;13.70;;
69795;SDS011;57073;45.650;9.612;2023-03-03T04:45:08;33.13;;;14.77;;
69795;SDS011;57073;45.650;9.612;2023-03-03T04:50:09;31.20;;;13.57;;
69795;SDS011;57073;45.650;9.612;2023-03-03T04:55:10;31.43;;;14.50;;
69795;SDS011;57073;45.650;9.612;2023-03-03T05:00:11;31.70;;;14.30;;
69795;SDS011;57073;45.650;9.612;2023-03-03T05:05:12;32.30;;;13.88;;
69795;SDS011;57073;45.650;9.612;2023-03-03T05:10:13;29.47;;;14.17;;
69795;SDS011;57073;45.650;9.612;2023-03-03T05:15:13;29.57;;;14.33;;
69795;SDS011;57073;45.650;9.612;2023-03-03T05:20:13;29.93;;;13.97;;
69795;SDS011;57073;45.650;9.612;2023-03-03T05:25:14;28.70;;;13.17;;
69795;SDS011;57073;45.650;9.612;2023-03-03T05:30:14;28.77;;;12.77;;
69795;SDS011;57073;45.650;9.612;2023-03-03T05:35:14;31.53;;;13.47;;
69795;SDS011;57073;45.650;9.612;2023-03-03T05:40:15;29.60;;;14.00;;
69795;SDS011;57073;45.650;9.612;2023-03-03T05:45:15;29.80;;;13.43;;
69795;SDS011;57073;45.650;9.612;2023-03-03T05:50:19;33.17;;;13.93;;
69795;SDS011;57073;45.650;9.612;2023-03-03T05:55:21;29.75;;;13.18;;
69795;SDS011;57073;45.650;9.612;2023-03-03T06:00:21;31.20;;;13.57;;
69795;SDS011;57073;45.650;9.612;2023-03-03T06:05:22;33.90;;;13.77;;
69795;SDS011;57073;45.650;9.612;2023-03-03T06:10:22;30.97;;;13.10;;
69795;SDS011;57073;45.650;9.612;2023-03-03T06:15:23;33.57;;;13.77;;
69795;SDS011;57073;45.650;9.612;2023-03-03T06:20:23;33.43;;;13.47;;
69795;SDS011;57073;45.650;9.612;2023-03-03T06:25:24;33.80;;;14.30;;
69795;SDS011;57073;45.650;9.612;2023-03-03T06:30:24;28.20;;;14.00;;
69795;SDS011;57073;45.650;9.612;2023-03-03T06:35:26;28.73;;;13.73;;
69795;SDS011;57073;45.650;9.612;2023-03-03T06:40:26;30.23;;;14.03;;
69795;SDS011;57073;45.650;9.612;2023-03-03T06:45:26;34.13;;;14.87;;
69795;SDS011;57073;45.650;9.612;2023-03-03T06:50:27;28.37;;;13.40;;
69795;SDS011;57073;45.650;9.612;2023-03-03T06:55:27;27.93;;;13.17;;
69795;SDS011;57073;45.650;9.612;2023-03-03T07:00:27;30.33;;;13.27;;
69795;SDS011;57073;45.650;9.612;2023-03-03T07:05:28;28.77;;;12.90;;
69795;SDS011;57073;45.650;9.612;2023-03-03T07:10:29;28.90;;;13.82;;
69795;SDS011;57073;45.650;9.612;2023-03-03T07:15:33;30.63;;;13.43;;
69795;SDS011;57073;45.650;9.612;2023-03-03T07:20:35;30.10;;;13.85;;
69795;SDS011;57073;45.650;9.612;2023-03-03T07:25:38;34.13;;;14.80;;
69795;SDS011;57073;45.650;9.612;2023-03-03T07:30:39;28.17;;;13.27;;
69795;SDS011;57073;45.650;9.612;2023-03-03T07:35:40;33.47;;;14.77;;
69795;SDS011;57073;45.650;9.612;2023-03-03T07:40:52;33.27;;;15.60;;
69795;SDS011;57073;45.650;9.612;2023-03-03T07:46:01;34.70;;;15.88;;
69795;SDS011;57073;45.650;9.612;2023-03-03T07:51:24;32.63;;;15.20;;
69795;SDS011;57073;45.650;9.612;2023-03-03T07:56:30;36.57;;;16.87;;
69795;SDS011;57073;45.650;9.612;2023-03-03T08:01:35;38.40;;;17.50;;
69795;SDS011;57073;45.650;9.612;2023-03-03T08:06:46;35.37;;;16.67;;
69795;SDS011;57073;45.650;9.612;2023-03-03T08:11:56;38.67;;;17.30;;
69795;SDS011;57073;45.650;9.612;2023-03-03T08:17:01;40.35;;;17.77;;
69795;SDS011;57073;45.650;9.612;2023-03-03T08:22:17;40.60;;;17.77;;
69795;SDS011;57073;45.650;9.612;2023-03-03T08:27:20;40.03;;;19.42;;
69795;SDS011;57073;45.650;9.612;2023-03-03T08:32:21;40.20;;;19.07;;
69795;SDS011;57073;45.650;9.612;2023-03-03T08:37:21;41.50;;;18.70;;
69795;SDS011;57073;45.650;9.612;2023-03-03T08:42:22;39.03;;;18.93;;
69795;SDS011;57073;45.650;9.612;2023-03-03T08:47:22;41.00;;;18.90;;
69795;SDS011;57073;45.650;9.612;2023-03-03T08:52:22;39.97;;;18.03;;
69795;SDS011;57073;45.650;9.612;2023-03-03T08:57:23;43.23;;;20.90;;
69795;SDS011;57073;45.650;9.612;2023-03-03T09:02:23;43.53;;;21.17;;
69795;SDS011;57073;45.650;9.612;2023-03-03T09:07:23;42.10;;;21.07;;
69795;SDS011;57073;45.650;9.612;2023-03-03T09:12:34;42.27;;;20.80;;
69795;SDS011;57073;45.650;9.612;2023-03-03T09:17:39;42.58;;;21.58;;
69795;SDS011;57073;45.650;9.612;2023-03-03T09:22:40;42.10;;;20.70;;
69795;SDS011;57073;45.650;9.612;2023-03-03T09:27:40;42.50;;;20.10;;
69795;SDS011;57073;45.650;9.612;2023-03-03T09:32:41;40.73;;;19.93;;
69795;SDS011;57073;45.650;9.612;2023-03-03T09:37:42;43.15;;;22.15;;
69795;SDS011;57073;45.650;9.612;2023-03-03T09:53:43;44.55;;;21.88;;
69795;SDS011;57073;45.650;9.612;2023-03-03T10:09:23;45.35;;;22.25;;
69795;SDS011;57073;45.650;9.612;2023-03-03T10:20:06;48.73;;;23.87;;
69795;SDS011;57073;45.650;9.612;2023-03-03T10:25:40;50.28;;;24.83;;
69795;SDS011;57073;45.650;9.612;2023-03-03T10:31:29;45.77;;;22.10;;
69795;SDS011;57073;45.650;9.612;2023-03-03T10:57:55;34.33;;;16.83;;
69795;SDS011;57073;45.650;9.612;2023-03-03T11:08:53;42.80;;;21.65;;
69795;SDS011;57073;45.650;9.612;2023-03-03T11:14:19;42.10;;;19.77;;
69795;SDS011;57073;45.650;9.612;2023-03-03T11:24:45;39.25;;;18.83;;
69795;SDS011;57073;45.650;9.612;2023-03-03T11:40:37;38.40;;;18.77;;
69795;SDS011;57073;45.650;9.612;2023-03-03T11:45:51;37.92;;;18.27;;
69795;SDS011;57073;45.650;9.612;2023-03-03T11:51:04;37.80;;;19.08;;
69795;SDS011;57073;45.650;9.612;2023-03-03T11:56:53;35.40;;;17.33;;
69795;SDS011;57073;45.650;9.612;2023-03-03T12:11:52;36.45;;;17.10;;
69795;SDS011;57073;45.650;9.612;2023-03-03T12:16:57;33.28;;;17.23;;
69795;SDS011;57073;45.650;9.612;2023-03-03T12:22:10;31.27;;;15.88;;
69795;SDS011;57073;45.650;9.612;2023-03-03T12:38:14;32.33;;;15.13;;
69795;SDS011;57073;45.650;9.612;2023-03-03T12:43:34;32.30;;;15.38;;
69795;SDS011;57073;45.650;9.612;2023-03-03T12:48:41;28.35;;;14.35;;
69795;SDS011;57073;45.650;9.612;2023-03-03T13:04:36;27.05;;;14.05;;
69795;SDS011;57073;45.650;9.612;2023-03-03T13:20:36;26.10;;;13.23;;
69795;SDS011;57073;45.650;9.612;2023-03-03T13:25:45;26.40;;;13.18;;
69795;SDS011;57073;45.650;9.612;2023-03-03T13:30:51;25.80;;;13.52;;
69795;SDS011;57073;45.650;9.612;2023-03-03T13:36:00;28.43;;;14.13;;
69795;SDS011;57073;45.650;9.612;2023-03-03T13:52:13;26.00;;;12.88;;
69795;SDS011;57073;45.650;9.612;2023-03-03T14:07:36;25.30;;;12.55;;
69795;SDS011;57073;45.650;9.612;2023-03-03T14:13:25;20.50;;;11.13;;
69795;SDS011;57073;45.650;9.612;2023-03-03T14:23:31;20.55;;;11.38;;
69795;SDS011;57073;45.650;9.612;2023-03-03T14:28:40;20.67;;;10.95;;
69795;SDS011;57073;45.650;9.612;2023-03-03T14:34:02;22.50;;;11.07;;
69795;SDS011;57073;45.650;9.612;2023-03-03T14:39:37;22.83;;;11.55;;
69795;SDS011;57073;45.650;9.612;2023-03-03T14:49:45;21.33;;;11.40;;
69795;SDS011;57073;45.650;9.612;2023-03-03T14:54:47;21.63;;;11.90;;
69795;SDS011;57073;45.650;9.612;2023-03-03T15:00:29;22.50;;;12.23;;
69795;SDS011;57073;45.650;9.612;2023-03-03T15:05:28;22.23;;;12.70;;
69795;SDS011;57073;45.650;9.612;2023-03-03T15:15:34;22.83;;;12.27;;
69795;SDS011;57073;45.650;9.612;2023-03-03T15:21:07;25.50;;;12.95;;
69795;SDS011;57073;45.650;9.612;2023-03-03T15:26:18;24.10;;;11.93;;
69795;SDS011;57073;45.650;9.612;2023-03-03T15:31:46;24.47;;;12.37;;
69795;SDS011;57073;45.650;9.612;2023-03-03T15:37:26;23.80;;;11.73;;
69795;SDS011;57073;45.650;9.612;2023-03-03T15:48:04;21.97;;;11.03;;
69795;SDS011;57073;45.650;9.612;2023-03-03T16:04:20;21.70;;;9.73;;
69795;SDS011;57073;45.650;9.612;2023-03-03T16:25:02;21.47;;;12.30;;
69795;SDS011;57073;45.650;9.612;2023-03-03T16:30:22;19.37;;;10.43;;
69795;SDS011;57073;45.650;9.612;2023-03-03T16:35:37;19.10;;;10.68;;
69795;SDS011;57073;45.650;9.612;2023-03-03T16:40:44;25.80;;;16.20;;
69795;SDS011;57073;45.650;9.612;2023-03-03T16:45:50;23.45;;;10.65;;
69795;SDS011;57073;45.650;9.612;2023-03-03T16:56:23;20.87;;;10.37;;
69795;SDS011;57073;45.650;9.612;2023-03-03T17:06:52;18.00;;;10.27;;
69795;SDS011;57073;45.650;9.612;2023-03-03T17:27:49;24.77;;;11.60;;
69795;SDS011;57073;45.650;9.612;2023-03-03T17:38:15;22.02;;;11.50;;
69795;SDS011;57073;45.650;9.612;2023-03-03T17:43:30;19.00;;;10.97;;
69795;SDS011;57073;45.650;9.612;2023-03-03T17:48:47;21.48;;;11.63;;
69795;SDS011;57073;45.650;9.612;2023-03-03T18:20:33;25.48;;;13.88;;
69795;SDS011;57073;45.650;9.612;2023-03-03T18:25:57;24.40;;;11.17;;
69795;SDS011;57073;45.650;9.612;2023-03-03T18:30:59;26.57;;;13.60;;
69795;SDS011;57073;45.650;9.612;2023-03-03T18:42:03;38.88;;;24.13;;
69795;SDS011;57073;45.650;9.612;2023-03-03T18:48:12;30.40;;;17.73;;
69795;SDS011;57073;45.650;9.612;2023-03-03T18:58:31;47.80;;;28.47;;
69795;SDS011;57073;45.650;9.612;2023-03-03T19:03:54;38.30;;;21.40;;
69795;SDS011;57073;45.650;9.612;2023-03-03T19:09:18;26.25;;;13.73;;
69795;SDS011;57073;45.650;9.612;2023-03-03T19:14:39;22.77;;;12.23;;
69795;SDS011;57073;45.650;9.612;2023-03-03T19:56:52;32.05;;;16.10;;
69795;SDS011;57073;45.650;9.612;2023-03-03T20:12:41;31.05;;;17.17;;
69795;SDS011;57073;45.650;9.612;2023-03-03T20:34:28;35.43;;;17.83;;
69795;SDS011;57073;45.650;9.612;2023-03-03T20:49:38;34.78;;;16.70;;
69795;SDS011;57073;45.650;9.612;2023-03-03T20:55:00;33.05;;;16.67;;
69795;SDS011;57073;45.650;9.612;2023-03-03T21:00:18;37.53;;;17.20;;
69795;SDS011;57073;45.650;9.612;2023-03-03T21:05:23;32.75;;;17.65;;
69795;SDS011;57073;45.650;9.612;2023-03-03T21:10:24;33.70;;;17.90;;
69795;SDS011;57073;45.650;9.612;2023-03-03T21:15:30;37.00;;;17.97;;
69795;SDS011;57073;45.650;9.612;2023-03-03T21:20:34;34.42;;;17.38;;
69795;SDS011;57073;45.650;9.612;2023-03-03T21:30:57;35.95;;;17.75;;
69795;SDS011;57073;45.650;9.612;2023-03-03T21:35:58;33.25;;;16.95;;
69795;SDS011;57073;45.650;9.612;2023-03-03T21:41:00;31.13;;;16.67;;
69795;SDS011;57073;45.650;9.612;2023-03-03T21:46:01;33.15;;;16.65;;
69795;SDS011;57073;45.650;9.612;2023-03-03T21:51:02;28.57;;;15.77;;
69795;SDS011;57073;45.650;9.612;2023-03-03T21:56:02;30.40;;;15.40;;
69795;SDS011;57073;45.650;9.612;2023-03-03T22:01:06;36.23;;;16.17;;
69795;SDS011;57073;45.650;9.612;2023-03-03T22:06:06;30.55;;;16.27;;
69795;SDS011;57073;45.650;9.612;2023-03-03T22:11:07;29.67;;;16.33;;
69795;SDS011;57073;45.650;9.612;2023-03-03T22:16:07;32.53;;;16.30;;
69795;SDS011;57073;45.650;9.612;2023-03-03T22:21:08;33.07;;;17.57;;
69795;SDS011;57073;45.650;9.612;2023-03-03T22:26:08;33.63;;;17.20;;
69795;SDS011;57073;45.650;9.612;2023-03-03T22:31:08;34.23;;;17.23;;
69795;SDS011;57073;45.650;9.612;2023-03-03T22:36:09;30.37;;;16.77;;
69795;SDS011;57073;45.650;9.612;2023-03-03T22:41:09;35.47;;;17.40;;
69795;SDS011;57073;45.650;9.612;2023-03-03T22:46:10;32.33;;;16.75;;
69795;SDS011;57073;45.650;9.612;2023-03-03T22:51:11;30.40;;;15.33;;
69795;SDS011;57073;45.650;9.612;2023-03-03T22:56:12;29.87;;;16.00;;
69795;SDS011;57073;45.650;9.612;2023-03-03T23:01:12;30.27;;;15.90;;
69795;SDS011;57073;45.650;9.612;2023-03-03T23:06:12;32.20;;;15.50;;
69795;SDS011;57073;45.650;9.612;2023-03-03T23:11:13;31.50;;;15.80;;
69795;SDS011;57073;45.650;9.612;2023-03-03T23:16:13;29.90;;;16.30;;
69795;SDS011;57073;45.650;9.612;2023-03-03T23:21:13;31.50;;;16.43;;
69795;SDS011;57073;45.650;9.612;2023-03-03T23:26:14;31.67;;;15.87;;
69795;SDS011;57073;45.650;9.612;2023-03-03T23:31:14;31.47;;;16.83;;
69795;SDS011;57073;45.650;9.612;2023-03-03T23:36:14;31.60;;;15.83;;
69795;SDS011;57073;45.650;9.612;2023-03-03T23:41:15;33.37;;;16.27;;
69795;SDS011;57073;45.650;9.612;2023-03-03T23:46:15;29.93;;;15.50;;
69795;SDS011;57073;45.650;9.612;2023-03-03T23:51:15;27.80;;;15.10;;
69795;SDS011;57073;45.650;9.612;2023-03-03T23:56:16;29.60;;;15.00;;
